Flight Track Log - Related Links

Times and Time Zones

All times are in EST time to prevent confusion due to time zone crossing. See the JIA4505 flight status page for this flight to view local times or setup timezone preferences in your user account.

Time Position Orientation Groundspeed Altitude Reporting Facility
EST Latitude Longitude Course Direction KTS MPH feet Rate Location/Type
Sun 11:02:19 PM 39.8667 -75.2667 246° West 143 165 700  Level Philadelphia TRACON
Sun 11:02:37 PM 39.8667 -75.2833 270° West 141 162 1,600 2,615 Climbing Philadelphia TRACON
Sun 11:03:37 PM 39.8333 -75.3333 229° Southwest 185 213 4,100 2,524 Climbing Philadelphia TRACON
Sun 11:04:43 PM 39.8000 -75.4167 243° Southwest 243 280 6,900 2,714 Climbing Philadelphia TRACON
Sun 11:05:00 PM 39.7700 -75.4543 264° West  Level Estimated
Sun 11:05:43 PM 39.7833 -75.5000 255° West 255 293 9,800  Level Philadelphia TRACON
Sun 11:06:00 PM 39.7436 -75.5307 246° West  Level FlightAware Approximate
Sun 11:06:55 PM 39.7500 -75.6000 247° West 247 284 10,000  Level Philadelphia TRACON
Sun 11:07:00 PM 39.7172 -75.6071 246° West  Level FlightAware Approximate
Sun 11:07:55 PM 39.7167 -75.6833 243° Southwest 254 292 10,000  Level Philadelphia TRACON
Sun 11:09:40 PM 39.6667 -75.8333 247° West 258 297 10,000  Level Potomac TRACON
Sun 11:10:40 PM 39.6333 -75.9167 243° Southwest 257 296 10,000  Level Potomac TRACON
Sun 11:11:46 PM 39.6333 -76.0167 270° West 254 292 10,000  Level Potomac TRACON
Sun 11:12:46 PM 39.6167 -76.1000 255° West 255 293 10,000  Level Potomac TRACON
Sun 11:13:46 PM 39.5500 -76.1667 218° Southwest 276 318 10,000 -250 Level Potomac TRACON
Sun 11:14:46 PM 39.4833 -76.2167 210° Southwest 273 314 9,500 -1,289 Descending Potomac TRACON
Sun 11:15:47 PM 39.4333 -76.2833 226° Southwest 267 307 7,400 -1,636 Descending Potomac TRACON
Sun 11:16:47 PM 39.3500 -76.3000 189° South 275 316 6,200 -1,222 Descending Potomac TRACON
Sun 11:17:35 PM 39.3000 -76.3167 194° South 271 312 5,200 -1,150 Descending Potomac TRACON
Sun 11:18:47 PM 39.2167 -76.3500 197° South 230 265 3,900 -1,048 Descending Potomac TRACON
Sun 11:19:41 PM 39.1833 -76.4000 229° Southwest 215 247 3,000 -556 Descending Potomac TRACON
Sun 11:20:35 PM 39.1667 -76.4500 247° West 150 173 2,900 -238 Descending Potomac TRACON
Sun 11:21:47 PM 39.1667 -76.5000 270° West 135 155 2,500 -500 Descending Potomac TRACON
Sun 11:22:47 PM 39.1667 -76.5500 270° West 122 140 1,800 -650 Descending Potomac TRACON
Sun 11:23:47 PM 39.1667 -76.5833 270° West 116 133 1,200 -650 Descending Potomac TRACON
Sun 11:24:47 PM 39.1667 -76.6333 270° West 120 138 500 -700 Descending Potomac TRACON

Login

Don't have an account? Register now (free) for customized features, flight alerts, and more!